sensor_id;sensor_type;location;lat;lon;timestamp;temperature;humidity
20345;DHT22;10330;48.816;9.278;2023-11-21T00:00:40;8.60;99.90
20345;DHT22;10330;48.816;9.278;2023-11-21T00:03:11;8.60;99.90
20345;DHT22;10330;48.816;9.278;2023-11-21T00:05:41;8.60;99.90
20345;DHT22;10330;48.816;9.278;2023-11-21T00:08:10;8.60;99.90
20345;DHT22;10330;48.816;9.278;2023-11-21T00:10:37;8.60;99.90
20345;DHT22;10330;48.816;9.278;2023-11-21T00:13:07;8.60;99.90
20345;DHT22;10330;48.816;9.278;2023-11-21T00:15:38;8.50;99.90
20345;DHT22;10330;48.816;9.278;2023-11-21T00:18:06;8.60;99.90
20345;DHT22;10330;48.816;9.278;2023-11-21T00:20:33;8.50;99.90
20345;DHT22;10330;48.816;9.278;2023-11-21T00:23:03;8.50;99.90
20345;DHT22;10330;48.816;9.278;2023-11-21T00:25:30;8.50;99.90
20345;DHT22;10330;48.816;9.278;2023-11-21T00:27:57;8.60;99.90
20345;DHT22;10330;48.816;9.278;2023-11-21T00:30:28;8.60;99.90
20345;DHT22;10330;48.816;9.278;2023-11-21T00:32:57;8.50;99.90
20345;DHT22;10330;48.816;9.278;2023-11-21T00:35:23;8.50;99.90
20345;DHT22;10330;48.816;9.278;2023-11-21T00:37:50;8.50;99.90
20345;DHT22;10330;48.816;9.278;2023-11-21T00:40:16;8.50;99.90
20345;DHT22;10330;48.816;9.278;2023-11-21T00:42:47;8.50;99.90
20345;DHT22;10330;48.816;9.278;2023-11-21T00:45:17;8.50;99.90
20345;DHT22;10330;48.816;9.278;2023-11-21T00:47:43;8.50;99.90
20345;DHT22;10330;48.816;9.278;2023-11-21T00:50:19;8.50;99.90
20345;DHT22;10330;48.816;9.278;2023-11-21T00:52:45;8.50;99.90
20345;DHT22;10330;48.816;9.278;2023-11-21T00:55:18;8.60;99.90
20345;DHT22;10330;48.816;9.278;2023-11-21T00:57:48;8.70;99.90
20345;DHT22;10330;48.816;9.278;2023-11-21T01:00:20;8.60;99.90
20345;DHT22;10330;48.816;9.278;2023-11-21T01:02:47;8.50;99.90
20345;DHT22;10330;48.816;9.278;2023-11-21T01:05:33;8.50;99.90
20345;DHT22;10330;48.816;9.278;2023-11-21T01:08:09;8.50;99.90
20345;DHT22;10330;48.816;9.278;2023-11-21T01:10:39;8.50;99.90
20345;DHT22;10330;48.816;9.278;2023-11-21T01:13:09;8.50;99.90
20345;DHT22;10330;48.816;9.278;2023-11-21T01:15:42;8.60;99.90
20345;DHT22;10330;48.816;9.278;2023-11-21T01:18:13;8.60;99.90
20345;DHT22;10330;48.816;9.278;2023-11-21T01:20:45;8.50;99.90
20345;DHT22;10330;48.816;9.278;2023-11-21T01:23:19;8.60;99.90
20345;DHT22;10330;48.816;9.278;2023-11-21T01:25:45;8.60;99.90
20345;DHT22;10330;48.816;9.278;2023-11-21T01:28:21;8.60;99.90
20345;DHT22;10330;48.816;9.278;2023-11-21T01:30:51;8.60;99.90
20345;DHT22;10330;48.816;9.278;2023-11-21T01:33:20;8.60;99.90
20345;DHT22;10330;48.816;9.278;2023-11-21T01:35:54;8.60;99.90
20345;DHT22;10330;48.816;9.278;2023-11-21T01:38:21;8.60;99.90
20345;DHT22;10330;48.816;9.278;2023-11-21T01:40:59;8.60;99.90
20345;DHT22;10330;48.816;9.278;2023-11-21T01:43:29;8.60;99.90
20345;DHT22;10330;48.816;9.278;2023-11-21T01:46:00;8.50;99.90
20345;DHT22;10330;48.816;9.278;2023-11-21T01:48:37;8.50;99.90
20345;DHT22;10330;48.816;9.278;2023-11-21T01:51:11;8.50;99.90
20345;DHT22;10330;48.816;9.278;2023-11-21T01:53:47;8.50;99.90
20345;DHT22;10330;48.816;9.278;2023-11-21T01:59:16;8.50;99.90
20345;DHT22;10330;48.816;9.278;2023-11-21T02:01:47;8.50;99.90
20345;DHT22;10330;48.816;9.278;2023-11-21T02:07:10;8.50;99.90
20345;DHT22;10330;48.816;9.278;2023-11-21T02:09:44;8.50;99.90
20345;DHT22;10330;48.816;9.278;2023-11-21T02:12:18;8.60;99.90
20345;DHT22;10330;48.816;9.278;2023-11-21T02:14:48;8.60;99.90
20345;DHT22;10330;48.816;9.278;2023-11-21T02:17:15;8.60;99.90
20345;DHT22;10330;48.816;9.278;2023-11-21T02:19:41;8.60;99.90
20345;DHT22;10330;48.816;9.278;2023-11-21T02:22:11;8.60;99.90
20345;DHT22;10330;48.816;9.278;2023-11-21T02:24:41;8.60;99.90
20345;DHT22;10330;48.816;9.278;2023-11-21T02:27:08;8.60;99.90
20345;DHT22;10330;48.816;9.278;2023-11-21T02:29:35;8.60;99.90
20345;DHT22;10330;48.816;9.278;2023-11-21T02:32:01;8.60;99.90
20345;DHT22;10330;48.816;9.278;2023-11-21T02:34:31;8.60;99.90
20345;DHT22;10330;48.816;9.278;2023-11-21T02:37:01;8.60;99.90
20345;DHT22;10330;48.816;9.278;2023-11-21T02:39:27;8.60;99.90
20345;DHT22;10330;48.816;9.278;2023-11-21T02:41:53;8.60;99.90
20345;DHT22;10330;48.816;9.278;2023-11-21T02:44:20;8.60;99.90
20345;DHT22;10330;48.816;9.278;2023-11-21T02:46:47;8.60;99.90
20345;DHT22;10330;48.816;9.278;2023-11-21T02:49:13;8.60;99.90
20345;DHT22;10330;48.816;9.278;2023-11-21T02:51:40;8.70;99.90
20345;DHT22;10330;48.816;9.278;2023-11-21T02:54:07;8.60;99.90
20345;DHT22;10330;48.816;9.278;2023-11-21T02:56:35;8.60;99.90
20345;DHT22;10330;48.816;9.278;2023-11-21T02:59:06;8.60;99.90
20345;DHT22;10330;48.816;9.278;2023-11-21T03:01:32;8.60;99.90
20345;DHT22;10330;48.816;9.278;2023-11-21T03:03:58;8.70;99.90
20345;DHT22;10330;48.816;9.278;2023-11-21T03:06:25;8.60;99.90
20345;DHT22;10330;48.816;9.278;2023-11-21T03:08:54;8.60;99.90
20345;DHT22;10330;48.816;9.278;2023-11-21T03:11:21;8.60;99.90
20345;DHT22;10330;48.816;9.278;2023-11-21T03:13:53;8.60;99.90
20345;DHT22;10330;48.816;9.278;2023-11-21T03:16:23;8.50;99.90
20345;DHT22;10330;48.816;9.278;2023-11-21T03:18:52;8.60;99.90
20345;DHT22;10330;48.816;9.278;2023-11-21T03:21:24;8.60;99.90
20345;DHT22;10330;48.816;9.278;2023-11-21T03:23:56;8.60;99.90
20345;DHT22;10330;48.816;9.278;2023-11-21T03:26:33;8.60;99.90
20345;DHT22;10330;48.816;9.278;2023-11-21T03:29:02;8.60;99.90
20345;DHT22;10330;48.816;9.278;2023-11-21T03:31:33;8.60;99.90
20345;DHT22;10330;48.816;9.278;2023-11-21T03:34:03;8.60;99.90
20345;DHT22;10330;48.816;9.278;2023-11-21T03:36:29;8.60;99.90
20345;DHT22;10330;48.816;9.278;2023-11-21T03:38:56;8.60;99.90
20345;DHT22;10330;48.816;9.278;2023-11-21T03:41:25;8.60;99.90
20345;DHT22;10330;48.816;9.278;2023-11-21T03:43:51;8.60;99.90
20345;DHT22;10330;48.816;9.278;2023-11-21T03:46:18;8.60;99.90
20345;DHT22;10330;48.816;9.278;2023-11-21T03:48:44;8.60;99.90
20345;DHT22;10330;48.816;9.278;2023-11-21T03:51:11;8.60;99.90
20345;DHT22;10330;48.816;9.278;2023-11-21T03:53:37;8.60;99.90
20345;DHT22;10330;48.816;9.278;2023-11-21T03:56:04;8.50;99.90
20345;DHT22;10330;48.816;9.278;2023-11-21T03:58:30;8.50;99.90
20345;DHT22;10330;48.816;9.278;2023-11-21T04:00:56;8.50;99.90
20345;DHT22;10330;48.816;9.278;2023-11-21T04:03:23;8.50;99.90
20345;DHT22;10330;48.816;9.278;2023-11-21T04:05:49;8.50;99.90
20345;DHT22;10330;48.816;9.278;2023-11-21T04:08:15;8.40;99.90
20345;DHT22;10330;48.816;9.278;2023-11-21T04:10:41;8.40;99.90
20345;DHT22;10330;48.816;9.278;2023-11-21T04:13:08;8.50;99.90
20345;DHT22;10330;48.816;9.278;2023-11-21T04:15:37;8.40;99.90
20345;DHT22;10330;48.816;9.278;2023-11-21T04:18:28;8.50;99.90
20345;DHT22;10330;48.816;9.278;2023-11-21T04:21:10;8.40;99.90
20345;DHT22;10330;48.816;9.278;2023-11-21T04:23:41;8.40;99.90
20345;DHT22;10330;48.816;9.278;2023-11-21T04:26:25;8.50;99.90
20345;DHT22;10330;48.816;9.278;2023-11-21T04:29:40;8.30;99.90
20345;DHT22;10330;48.816;9.278;2023-11-21T04:32:48;8.30;99.90
20345;DHT22;10330;48.816;9.278;2023-11-21T04:35:40;8.30;99.90
20345;DHT22;10330;48.816;9.278;2023-11-21T04:38:35;8.30;99.90
20345;DHT22;10330;48.816;9.278;2023-11-21T04:41:16;8.40;99.90
20345;DHT22;10330;48.816;9.278;2023-11-21T04:43:43;8.40;99.90
20345;DHT22;10330;48.816;9.278;2023-11-21T04:46:09;8.40;99.90
20345;DHT22;10330;48.816;9.278;2023-11-21T04:48:36;8.30;99.90
20345;DHT22;10330;48.816;9.278;2023-11-21T04:51:02;8.30;99.90
20345;DHT22;10330;48.816;9.278;2023-11-21T04:53:30;8.30;99.90
20345;DHT22;10330;48.816;9.278;2023-11-21T04:55:59;8.30;99.90
20345;DHT22;10330;48.816;9.278;2023-11-21T04:58:25;8.20;99.90
20345;DHT22;10330;48.816;9.278;2023-11-21T05:00:54;8.20;99.90
20345;DHT22;10330;48.816;9.278;2023-11-21T05:03:21;8.20;99.90
20345;DHT22;10330;48.816;9.278;2023-11-21T05:05:49;8.20;99.90
20345;DHT22;10330;48.816;9.278;2023-11-21T05:08:16;8.20;99.90
20345;DHT22;10330;48.816;9.278;2023-11-21T05:10:43;8.20;99.90
20345;DHT22;10330;48.816;9.278;2023-11-21T05:13:10;8.20;99.90
20345;DHT22;10330;48.816;9.278;2023-11-21T05:15:43;8.10;99.90
20345;DHT22;10330;48.816;9.278;2023-11-21T05:18:10;8.20;99.90
20345;DHT22;10330;48.816;9.278;2023-11-21T05:20:36;8.20;99.90
20345;DHT22;10330;48.816;9.278;2023-11-21T05:23:04;8.10;99.90
20345;DHT22;10330;48.816;9.278;2023-11-21T05:25:30;8.30;99.90
20345;DHT22;10330;48.816;9.278;2023-11-21T05:27:58;8.20;99.90
20345;DHT22;10330;48.816;9.278;2023-11-21T05:30:27;8.20;99.90
20345;DHT22;10330;48.816;9.278;2023-11-21T05:32:54;8.20;99.90
20345;DHT22;10330;48.816;9.278;2023-11-21T05:35:20;8.20;99.90
20345;DHT22;10330;48.816;9.278;2023-11-21T05:37:47;8.20;99.90
20345;DHT22;10330;48.816;9.278;2023-11-21T05:40:14;8.20;99.90
20345;DHT22;10330;48.816;9.278;2023-11-21T05:42:40;8.20;99.90
20345;DHT22;10330;48.816;9.278;2023-11-21T05:45:09;8.20;99.90
20345;DHT22;10330;48.816;9.278;2023-11-21T05:47:46;8.20;99.90
20345;DHT22;10330;48.816;9.278;2023-11-21T05:50:14;8.20;99.90
20345;DHT22;10330;48.816;9.278;2023-11-21T05:52:42;8.20;99.90
20345;DHT22;10330;48.816;9.278;2023-11-21T05:55:09;8.20;99.90
20345;DHT22;10330;48.816;9.278;2023-11-21T05:57:36;8.30;99.90
20345;DHT22;10330;48.816;9.278;2023-11-21T06:00:08;8.20;99.90
20345;DHT22;10330;48.816;9.278;2023-11-21T06:02:41;8.20;99.90
20345;DHT22;10330;48.816;9.278;2023-11-21T06:05:08;8.30;99.90
20345;DHT22;10330;48.816;9.278;2023-11-21T06:07:35;8.30;99.90
20345;DHT22;10330;48.816;9.278;2023-11-21T06:10:07;8.20;99.90
20345;DHT22;10330;48.816;9.278;2023-11-21T06:12:38;8.20;99.90
20345;DHT22;10330;48.816;9.278;2023-11-21T06:15:07;8.30;99.90
20345;DHT22;10330;48.816;9.278;2023-11-21T06:17:37;8.20;99.90
20345;DHT22;10330;48.816;9.278;2023-11-21T06:20:06;8.20;99.90
20345;DHT22;10330;48.816;9.278;2023-11-21T06:22:42;8.20;99.90
20345;DHT22;10330;48.816;9.278;2023-11-21T06:25:09;8.20;99.90
20345;DHT22;10330;48.816;9.278;2023-11-21T06:27:46;8.20;99.90
20345;DHT22;10330;48.816;9.278;2023-11-21T06:30:14;8.20;99.90
20345;DHT22;10330;48.816;9.278;2023-11-21T06:32:42;8.20;99.90
20345;DHT22;10330;48.816;9.278;2023-11-21T06:35:17;8.20;99.90
20345;DHT22;10330;48.816;9.278;2023-11-21T06:37:43;8.20;99.90
20345;DHT22;10330;48.816;9.278;2023-11-21T06:40:18;8.20;99.90
20345;DHT22;10330;48.816;9.278;2023-11-21T06:42:47;8.10;99.90
20345;DHT22;10330;48.816;9.278;2023-11-21T06:45:15;8.20;99.90
20345;DHT22;10330;48.816;9.278;2023-11-21T06:47:42;8.30;99.90
20345;DHT22;10330;48.816;9.278;2023-11-21T06:50:08;8.20;99.90
20345;DHT22;10330;48.816;9.278;2023-11-21T06:52:35;8.30;99.90
20345;DHT22;10330;48.816;9.278;2023-11-21T06:55:01;8.20;99.90
20345;DHT22;10330;48.816;9.278;2023-11-21T06:57:28;8.30;99.90
20345;DHT22;10330;48.816;9.278;2023-11-21T06:59:54;8.30;99.90
20345;DHT22;10330;48.816;9.278;2023-11-21T07:02:25;8.30;99.90
20345;DHT22;10330;48.816;9.278;2023-11-21T07:04:54;8.30;99.90
20345;DHT22;10330;48.816;9.278;2023-11-21T07:07:21;8.30;99.90
20345;DHT22;10330;48.816;9.278;2023-11-21T07:09:47;8.30;99.90
20345;DHT22;10330;48.816;9.278;2023-11-21T07:12:15;8.40;99.90
20345;DHT22;10330;48.816;9.278;2023-11-21T07:14:44;8.30;99.90
20345;DHT22;10330;48.816;9.278;2023-11-21T07:17:11;8.30;99.90
20345;DHT22;10330;48.816;9.278;2023-11-21T07:19:41;8.40;99.90
20345;DHT22;10330;48.816;9.278;2023-11-21T07:22:07;8.40;99.90
20345;DHT22;10330;48.816;9.278;2023-11-21T07:24:34;8.40;99.90
20345;DHT22;10330;48.816;9.278;2023-11-21T07:27:01;8.40;99.90
20345;DHT22;10330;48.816;9.278;2023-11-21T07:29:27;8.40;99.90
20345;DHT22;10330;48.816;9.278;2023-11-21T07:31:58;8.40;99.90
20345;DHT22;10330;48.816;9.278;2023-11-21T07:37:50;8.50;99.90
20345;DHT22;10330;48.816;9.278;2023-11-21T07:44:34;8.60;99.90
20345;DHT22;10330;48.816;9.278;2023-11-21T07:47:24;8.60;99.90
20345;DHT22;10330;48.816;9.278;2023-11-21T07:53:52;8.60;99.90
20345;DHT22;10330;48.816;9.278;2023-11-21T07:59:52;8.60;99.90
20345;DHT22;10330;48.816;9.278;2023-11-21T08:02:44;8.60;99.90
20345;DHT22;10330;48.816;9.278;2023-11-21T08:05:26;8.60;99.90
20345;DHT22;10330;48.816;9.278;2023-11-21T08:08:58;8.60;99.90
20345;DHT22;10330;48.816;9.278;2023-11-21T08:14:59;8.70;99.90
20345;DHT22;10330;48.816;9.278;2023-11-21T08:17:36;8.70;99.90
20345;DHT22;10330;48.816;9.278;2023-11-21T08:20:17;8.70;99.90
20345;DHT22;10330;48.816;9.278;2023-11-21T08:23:00;8.70;99.90
20345;DHT22;10330;48.816;9.278;2023-11-21T08:29:40;8.80;99.90
20345;DHT22;10330;48.816;9.278;2023-11-21T08:32:58;8.80;99.90
20345;DHT22;10330;48.816;9.278;2023-11-21T08:35:42;8.80;99.90
20345;DHT22;10330;48.816;9.278;2023-11-21T08:45:51;8.80;99.90
20345;DHT22;10330;48.816;9.278;2023-11-21T08:48:24;8.90;99.90
20345;DHT22;10330;48.816;9.278;2023-11-21T08:50:59;8.90;99.90
20345;DHT22;10330;48.816;9.278;2023-11-21T08:53:29;8.90;99.90
20345;DHT22;10330;48.816;9.278;2023-11-21T08:56:15;9.00;99.90
20345;DHT22;10330;48.816;9.278;2023-11-21T08:58:44;9.10;99.90
20345;DHT22;10330;48.816;9.278;2023-11-21T09:01:28;9.20;99.90
20345;DHT22;10330;48.816;9.278;2023-11-21T09:04:07;9.30;99.90
20345;DHT22;10330;48.816;9.278;2023-11-21T09:06:42;9.30;99.90
20345;DHT22;10330;48.816;9.278;2023-11-21T09:09:15;9.40;99.90
20345;DHT22;10330;48.816;9.278;2023-11-21T09:11:48;9.40;99.90
20345;DHT22;10330;48.816;9.278;2023-11-21T09:14:45;9.40;99.90
20345;DHT22;10330;48.816;9.278;2023-11-21T09:17:36;9.40;99.90
20345;DHT22;10330;48.816;9.278;2023-11-21T09:28:17;9.60;99.90
20345;DHT22;10330;48.816;9.278;2023-11-21T09:52:12;10.10;99.90
20345;DHT22;10330;48.816;9.278;2023-11-21T10:10:42;10.00;99.90
20345;DHT22;10330;48.816;9.278;2023-11-21T10:20:54;9.90;99.90
20345;DHT22;10330;48.816;9.278;2023-11-21T10:23:28;10.10;99.90
20345;DHT22;10330;48.816;9.278;2023-11-21T10:29:40;10.10;99.90
20345;DHT22;10330;48.816;9.278;2023-11-21T10:32:39;10.00;99.90
20345;DHT22;10330;48.816;9.278;2023-11-21T10:39:48;9.80;99.90
20345;DHT22;10330;48.816;9.278;2023-11-21T10:42:19;9.60;99.90
20345;DHT22;10330;48.816;9.278;2023-11-21T10:48:20;9.50;99.90
20345;DHT22;10330;48.816;9.278;2023-11-21T10:59:08;9.50;99.90
20345;DHT22;10330;48.816;9.278;2023-11-21T11:02:28;9.20;99.90
20345;DHT22;10330;48.816;9.278;2023-11-21T11:46:53;10.40;99.90
20345;DHT22;10330;48.816;9.278;2023-11-21T11:56:42;10.50;99.90
20345;DHT22;10330;48.816;9.278;2023-11-21T12:06:41;10.50;99.90
20345;DHT22;10330;48.816;9.278;2023-11-21T12:09:42;10.30;99.90
20345;DHT22;10330;48.816;9.278;2023-11-21T12:12:09;10.30;99.90
20345;DHT22;10330;48.816;9.278;2023-11-21T12:14:36;10.40;99.90
20345;DHT22;10330;48.816;9.278;2023-11-21T12:17:02;10.30;99.90
20345;DHT22;10330;48.816;9.278;2023-11-21T12:19:30;10.30;99.90
20345;DHT22;10330;48.816;9.278;2023-11-21T12:21:57;10.40;99.90
20345;DHT22;10330;48.816;9.278;2023-11-21T12:24:23;10.40;99.90
20345;DHT22;10330;48.816;9.278;2023-11-21T12:26:49;10.40;99.90
20345;DHT22;10330;48.816;9.278;2023-11-21T12:29:16;10.60;99.90
20345;DHT22;10330;48.816;9.278;2023-11-21T12:31:49;10.60;99.90
20345;DHT22;10330;48.816;9.278;2023-11-21T12:34:16;10.60;99.90
20345;DHT22;10330;48.816;9.278;2023-11-21T12:36:43;10.60;99.90
20345;DHT22;10330;48.816;9.278;2023-11-21T12:39:14;10.70;99.90
20345;DHT22;10330;48.816;9.278;2023-11-21T12:41:40;10.90;99.90
20345;DHT22;10330;48.816;9.278;2023-11-21T12:44:11;11.00;99.90
20345;DHT22;10330;48.816;9.278;2023-11-21T12:46:43;11.10;99.90
20345;DHT22;10330;48.816;9.278;2023-11-21T12:49:12;11.00;99.90
20345;DHT22;10330;48.816;9.278;2023-11-21T12:51:45;11.10;99.90
20345;DHT22;10330;48.816;9.278;2023-11-21T12:54:12;11.10;99.90
20345;DHT22;10330;48.816;9.278;2023-11-21T12:56:39;11.10;99.90
20345;DHT22;10330;48.816;9.278;2023-11-21T12:59:05;11.20;99.90
20345;DHT22;10330;48.816;9.278;2023-11-21T13:01:31;11.40;99.90
20345;DHT22;10330;48.816;9.278;2023-11-21T13:03:58;11.60;99.90
20345;DHT22;10330;48.816;9.278;2023-11-21T13:06:28;11.90;99.90
20345;DHT22;10330;48.816;9.278;2023-11-21T13:09:34;12.40;99.90
20345;DHT22;10330;48.816;9.278;2023-11-21T13:12:01;12.70;99.90
20345;DHT22;10330;48.816;9.278;2023-11-21T13:14:30;12.80;99.90
20345;DHT22;10330;48.816;9.278;2023-11-21T13:16:58;12.90;99.90
20345;DHT22;10330;48.816;9.278;2023-11-21T13:19:24;12.70;99.90
20345;DHT22;10330;48.816;9.278;2023-11-21T13:21:50;12.50;99.90
20345;DHT22;10330;48.816;9.278;2023-11-21T13:24:16;12.20;99.90
20345;DHT22;10330;48.816;9.278;2023-11-21T13:26:44;12.10;99.90
20345;DHT22;10330;48.816;9.278;2023-11-21T13:29:13;11.70;99.90
20345;DHT22;10330;48.816;9.278;2023-11-21T13:31:39;11.50;99.90
20345;DHT22;10330;48.816;9.278;2023-11-21T13:34:07;11.20;99.90
20345;DHT22;10330;48.816;9.278;2023-11-21T13:36:34;10.90;99.90
20345;DHT22;10330;48.816;9.278;2023-11-21T13:39:01;10.90;99.90
20345;DHT22;10330;48.816;9.278;2023-11-21T13:41:42;10.70;99.90
20345;DHT22;10330;48.816;9.278;2023-11-21T13:44:09;10.60;99.90
20345;DHT22;10330;48.816;9.278;2023-11-21T13:46:46;10.40;99.90
20345;DHT22;10330;48.816;9.278;2023-11-21T13:49:12;10.30;99.90
20345;DHT22;10330;48.816;9.278;2023-11-21T13:51:39;10.20;99.90
20345;DHT22;10330;48.816;9.278;2023-11-21T13:54:12;10.20;99.90
20345;DHT22;10330;48.816;9.278;2023-11-21T13:56:38;10.20;99.90
20345;DHT22;10330;48.816;9.278;2023-11-21T13:59:06;10.20;99.90
20345;DHT22;10330;48.816;9.278;2023-11-21T14:01:42;10.20;99.90
20345;DHT22;10330;48.816;9.278;2023-11-21T14:04:26;10.10;99.90
20345;DHT22;10330;48.816;9.278;2023-11-21T14:06:55;10.00;99.90
20345;DHT22;10330;48.816;9.278;2023-11-21T14:09:22;10.00;99.90
20345;DHT22;10330;48.816;9.278;2023-11-21T14:11:55;10.00;99.90
20345;DHT22;10330;48.816;9.278;2023-11-21T14:14:24;10.00;99.90
20345;DHT22;10330;48.816;9.278;2023-11-21T14:16:54;10.00;99.90
20345;DHT22;10330;48.816;9.278;2023-11-21T14:19:21;10.10;99.90
20345;DHT22;10330;48.816;9.278;2023-11-21T14:21:53;10.10;99.90
20345;DHT22;10330;48.816;9.278;2023-11-21T14:24:19;10.00;99.90
20345;DHT22;10330;48.816;9.278;2023-11-21T14:26:46;9.90;99.90
20345;DHT22;10330;48.816;9.278;2023-11-21T14:29:16;10.00;99.90
20345;DHT22;10330;48.816;9.278;2023-11-21T14:31:46;10.00;99.90
20345;DHT22;10330;48.816;9.278;2023-11-21T14:34:12;9.90;99.90
20345;DHT22;10330;48.816;9.278;2023-11-21T14:36:41;9.90;99.90
20345;DHT22;10330;48.816;9.278;2023-11-21T14:39:09;9.90;99.90
20345;DHT22;10330;48.816;9.278;2023-11-21T14:41:52;9.90;99.90
20345;DHT22;10330;48.816;9.278;2023-11-21T14:44:20;9.90;99.90
20345;DHT22;10330;48.816;9.278;2023-11-21T14:46:47;9.90;99.90
20345;DHT22;10330;48.816;9.278;2023-11-21T14:49:16;9.90;99.90
20345;DHT22;10330;48.816;9.278;2023-11-21T14:51:53;9.90;99.90
20345;DHT22;10330;48.816;9.278;2023-11-21T14:54:30;9.90;99.90
20345;DHT22;10330;48.816;9.278;2023-11-21T14:57:10;9.90;99.90
20345;DHT22;10330;48.816;9.278;2023-11-21T14:59:48;9.90;99.90
20345;DHT22;10330;48.816;9.278;2023-11-21T15:02:23;9.80;99.90
20345;DHT22;10330;48.816;9.278;2023-11-21T15:05:14;9.70;99.90
20345;DHT22;10330;48.816;9.278;2023-11-21T15:07:47;9.70;99.90
20345;DHT22;10330;48.816;9.278;2023-11-21T15:10:15;9.70;99.90
20345;DHT22;10330;48.816;9.278;2023-11-21T15:12:42;9.60;99.90
20345;DHT22;10330;48.816;9.278;2023-11-21T15:15:09;9.60;99.90
20345;DHT22;10330;48.816;9.278;2023-11-21T15:17:43;9.60;99.90
20345;DHT22;10330;48.816;9.278;2023-11-21T15:20:15;9.60;99.90
20345;DHT22;10330;48.816;9.278;2023-11-21T15:22:47;9.60;99.90
20345;DHT22;10330;48.816;9.278;2023-11-21T15:25:15;9.50;99.90
20345;DHT22;10330;48.816;9.278;2023-11-21T15:27:42;9.50;99.90
20345;DHT22;10330;48.816;9.278;2023-11-21T15:30:08;9.50;99.90
20345;DHT22;10330;48.816;9.278;2023-11-21T15:32:34;9.50;99.90
20345;DHT22;10330;48.816;9.278;2023-11-21T15:35:01;9.40;99.90
20345;DHT22;10330;48.816;9.278;2023-11-21T15:37:27;9.40;99.90
20345;DHT22;10330;48.816;9.278;2023-11-21T15:39:55;9.50;99.90
20345;DHT22;10330;48.816;9.278;2023-11-21T15:42:21;9.40;99.90
20345;DHT22;10330;48.816;9.278;2023-11-21T15:44:47;9.40;99.90
20345;DHT22;10330;48.816;9.278;2023-11-21T15:47:13;9.40;99.90
20345;DHT22;10330;48.816;9.278;2023-11-21T15:49:39;9.40;99.90
20345;DHT22;10330;48.816;9.278;2023-11-21T15:52:09;9.40;99.90
20345;DHT22;10330;48.816;9.278;2023-11-21T15:54:39;9.40;99.90
20345;DHT22;10330;48.816;9.278;2023-11-21T15:57:06;9.30;99.90
20345;DHT22;10330;48.816;9.278;2023-11-21T15:59:34;9.20;99.90
20345;DHT22;10330;48.816;9.278;2023-11-21T16:02:01;9.20;99.90
20345;DHT22;10330;48.816;9.278;2023-11-21T16:04:30;9.20;99.90
20345;DHT22;10330;48.816;9.278;2023-11-21T16:06:57;9.10;99.90
20345;DHT22;10330;48.816;9.278;2023-11-21T16:09:25;9.10;99.90
20345;DHT22;10330;48.816;9.278;2023-11-21T16:11:58;9.20;99.90
20345;DHT22;10330;48.816;9.278;2023-11-21T16:14:28;9.20;99.90
20345;DHT22;10330;48.816;9.278;2023-11-21T16:17:04;9.20;99.90
20345;DHT22;10330;48.816;9.278;2023-11-21T16:19:33;9.20;99.90
20345;DHT22;10330;48.816;9.278;2023-11-21T16:22:00;9.20;99.90
20345;DHT22;10330;48.816;9.278;2023-11-21T16:24:27;9.10;99.90
20345;DHT22;10330;48.816;9.278;2023-11-21T16:26:54;9.00;99.90
20345;DHT22;10330;48.816;9.278;2023-11-21T16:29:22;9.10;99.90
20345;DHT22;10330;48.816;9.278;2023-11-21T16:31:48;9.00;99.90
20345;DHT22;10330;48.816;9.278;2023-11-21T16:34:20;9.00;99.90
20345;DHT22;10330;48.816;9.278;2023-11-21T16:36:46;9.00;99.90
20345;DHT22;10330;48.816;9.278;2023-11-21T16:39:16;8.90;99.90
20345;DHT22;10330;48.816;9.278;2023-11-21T16:41:45;8.80;99.90
20345;DHT22;10330;48.816;9.278;2023-11-21T16:44:14;8.80;99.90
20345;DHT22;10330;48.816;9.278;2023-11-21T16:46:48;8.80;99.90
20345;DHT22;10330;48.816;9.278;2023-11-21T16:49:24;8.70;99.90
20345;DHT22;10330;48.816;9.278;2023-11-21T16:51:52;8.70;99.90
20345;DHT22;10330;48.816;9.278;2023-11-21T16:54:20;8.70;99.90
20345;DHT22;10330;48.816;9.278;2023-11-21T16:56:46;8.50;99.90
20345;DHT22;10330;48.816;9.278;2023-11-21T16:59:15;8.60;99.90
20345;DHT22;10330;48.816;9.278;2023-11-21T17:01:42;8.50;99.90
20345;DHT22;10330;48.816;9.278;2023-11-21T17:04:10;8.40;99.90
20345;DHT22;10330;48.816;9.278;2023-11-21T17:06:40;8.40;99.90
20345;DHT22;10330;48.816;9.278;2023-11-21T17:09:07;8.40;99.90
20345;DHT22;10330;48.816;9.278;2023-11-21T17:11:36;8.40;99.90
20345;DHT22;10330;48.816;9.278;2023-11-21T17:14:03;8.30;99.90
20345;DHT22;10330;48.816;9.278;2023-11-21T17:16:33;8.30;99.90
20345;DHT22;10330;48.816;9.278;2023-11-21T17:19:15;8.20;99.90
20345;DHT22;10330;48.816;9.278;2023-11-21T17:21:41;8.10;99.90
20345;DHT22;10330;48.816;9.278;2023-11-21T17:24:07;8.20;99.90
20345;DHT22;10330;48.816;9.278;2023-11-21T17:26:35;8.20;99.90
20345;DHT22;10330;48.816;9.278;2023-11-21T17:29:01;8.20;99.90
20345;DHT22;10330;48.816;9.278;2023-11-21T17:31:28;8.20;99.90
20345;DHT22;10330;48.816;9.278;2023-11-21T17:33:55;8.20;99.90
20345;DHT22;10330;48.816;9.278;2023-11-21T17:36:21;8.20;99.90
20345;DHT22;10330;48.816;9.278;2023-11-21T17:38:48;8.20;99.90
20345;DHT22;10330;48.816;9.278;2023-11-21T17:41:19;8.10;99.90
20345;DHT22;10330;48.816;9.278;2023-11-21T17:43:47;8.20;99.90
20345;DHT22;10330;48.816;9.278;2023-11-21T17:46:18;8.20;99.90
20345;DHT22;10330;48.816;9.278;2023-11-21T17:48:53;8.30;99.90
20345;DHT22;10330;48.816;9.278;2023-11-21T17:51:30;8.20;99.90
20345;DHT22;10330;48.816;9.278;2023-11-21T17:53:57;8.20;99.90
20345;DHT22;10330;48.816;9.278;2023-11-21T17:56:27;8.20;99.90
20345;DHT22;10330;48.816;9.278;2023-11-21T17:58:54;8.30;99.90
20345;DHT22;10330;48.816;9.278;2023-11-21T18:01:23;8.30;99.90
20345;DHT22;10330;48.816;9.278;2023-11-21T18:03:50;8.30;99.90
20345;DHT22;10330;48.816;9.278;2023-11-21T18:06:16;8.30;99.90
20345;DHT22;10330;48.816;9.278;2023-11-21T18:08:42;8.30;99.90
20345;DHT22;10330;48.816;9.278;2023-11-21T18:11:09;8.40;99.90
20345;DHT22;10330;48.816;9.278;2023-11-21T18:13:36;8.30;99.90
20345;DHT22;10330;48.816;9.278;2023-11-21T18:16:08;8.30;99.90
20345;DHT22;10330;48.816;9.278;2023-11-21T18:18:35;8.30;99.90
20345;DHT22;10330;48.816;9.278;2023-11-21T18:21:02;8.30;99.90
20345;DHT22;10330;48.816;9.278;2023-11-21T18:23:28;8.30;99.90
20345;DHT22;10330;48.816;9.278;2023-11-21T18:26:00;8.30;99.90
20345;DHT22;10330;48.816;9.278;2023-11-21T18:28:27;8.40;99.90
20345;DHT22;10330;48.816;9.278;2023-11-21T18:30:54;8.40;99.90
20345;DHT22;10330;48.816;9.278;2023-11-21T18:33:21;8.30;99.90
20345;DHT22;10330;48.816;9.278;2023-11-21T18:35:49;8.30;99.90
20345;DHT22;10330;48.816;9.278;2023-11-21T18:38:15;8.30;99.90
20345;DHT22;10330;48.816;9.278;2023-11-21T18:40:42;8.40;99.90
20345;DHT22;10330;48.816;9.278;2023-11-21T18:43:09;8.30;99.90
20345;DHT22;10330;48.816;9.278;2023-11-21T18:45:35;8.30;99.90
20345;DHT22;10330;48.816;9.278;2023-11-21T18:48:08;8.30;99.90
20345;DHT22;10330;48.816;9.278;2023-11-21T18:50:37;8.30;99.90